Time;durP1;ratioP1;P1;durP2;ratioP2;P2;SDS_P1;SDS_P2;PMS_P1;PMS_P2;Temp;Humidity;BMP_temperature;BMP_pressure;BME280_temperature;BME280_humidity;BME280_pressure;Samples;Min_cycle;Max_cycle;Signal;HPM_P1;HPM_P2
2021/12/10 00:01:55;;;;;;;1.42;0.40;;;21.00;99.90;;;;;;5028661;28;20399;-67
2021/12/10 00:04:29;;;;;;;7.00;0.88;;;21.20;99.90;;;;;;5026628;28;20029;-67
2021/12/10 00:07:04;;;;;;;0.88;0.47;;;21.40;99.90;;;;;;5010976;28;20048;-67
2021/12/10 00:09:44;;;;;;;3.65;0.30;;;21.60;99.90;;;;;;5027383;28;20049;-67
2021/12/10 00:12:30;;;;;;;2.47;0.50;;;21.40;99.90;;;;;;5028963;28;20054;-68
2021/12/10 00:14:57;;;;;;;4.13;0.50;;;21.40;99.90;;;;;;5028236;28;20030;-67
2021/12/10 00:17:24;;;;;;;3.50;0.93;;;20.90;99.90;;;;;;5027321;28;20033;-68
2021/12/10 00:19:57;;;;;;;1.02;0.47;;;20.80;99.90;;;;;;5023448;28;20019;-67
2021/12/10 00:22:48;;;;;;;2.28;0.40;;;20.60;99.90;;;;;;5007539;28;20025;-67
2021/12/10 00:25:19;;;;;;;1.55;0.28;;;20.70;99.90;;;;;;5007637;28;20046;-68
2021/12/10 00:27:49;;;;;;;0.95;0.20;;;21.20;99.90;;;;;;5025856;28;20122;-67
2021/12/10 00:30:27;;;;;;;4.57;0.50;;;21.50;99.90;;;;;;5008838;28;20030;-68
2021/12/10 00:33:09;;;;;;;1.63;0.30;;;21.70;99.90;;;;;;5011472;28;20026;-67
2021/12/10 00:35:37;;;;;;;1.63;0.45;;;21.40;99.90;;;;;;5014375;28;20030;-67
2021/12/10 00:38:06;;;;;;;1.42;0.30;;;20.30;99.90;;;;;;5024945;28;20441;-67
2021/12/10 00:40:33;;;;;;;2.10;0.20;;;19.50;99.90;;;;;;5023829;28;20029;-67
2021/12/10 00:43:01;;;;;;;2.92;0.20;;;19.20;99.90;;;;;;5015279;28;20049;-67
2021/12/10 00:45:29;;;;;;;5.15;0.47;;;19.00;99.90;;;;;;5023431;28;20029;-67
2021/12/10 00:47:56;;;;;;;6.38;0.52;;;18.40;99.90;;;;;;5030669;28;20542;-66
2021/12/10 00:50:28;;;;;;;3.30;0.68;;;15.50;99.90;;;;;;5021625;28;20465;-66
2021/12/10 00:52:56;;;;;;;17.92;2.30;;;14.70;99.90;;;;;;5018282;28;20033;-65
2021/12/10 00:55:25;;;;;;;12.57;1.58;;;14.30;99.90;;;;;;5022153;28;20033;-66
2021/12/10 00:57:54;;;;;;;11.20;1.40;;;14.30;99.90;;;;;;5037875;28;20504;-66
2021/12/10 01:00:38;;;;;;;25.08;3.00;;;14.10;99.90;;;;;;5044410;28;20033;-66
2021/12/10 01:03:08;;;;;;;8.27;1.40;;;14.30;99.90;;;;;;5027651;28;20018;-66
2021/12/10 01:05:36;;;;;;;16.70;2.17;;;14.20;99.90;;;;;;5026346;28;20049;-66
2021/12/10 01:08:03;;;;;;;17.55;2.03;;;14.20;99.90;;;;;;5040473;28;20053;-66
2021/12/10 01:10:47;;;;;;;1.55;0.30;;;13.90;99.90;;;;;;5027808;28;20056;-65
2021/12/10 01:13:18;;;;;;;2.40;0.30;;;13.80;99.90;;;;;;5023059;28;20497;-67
2021/12/10 01:24:51;;;;;;;6.88;1.83;;;14.00;99.90;;;;;;5021764;28;20052;-66
2021/12/10 01:27:33;;;;;;;3.53;0.82;;;14.20;99.90;;;;;;5022406;28;20383;-67
2021/12/10 01:30:22;;;;;;;7.10;0.60;;;14.50;99.90;;;;;;5007538;28;20033;-66
2021/12/10 01:32:53;;;;;;;6.47;0.93;;;14.50;99.90;;;;;;5023605;28;20037;-67
2021/12/10 01:35:24;;;;;;;2.38;0.70;;;14.70;99.90;;;;;;5039738;28;20030;-66
2021/12/10 01:37:54;;;;;;;2.47;0.93;;;14.80;99.90;;;;;;5026157;28;20053;-65
2021/12/10 01:40:24;;;;;;;4.45;0.40;;;14.70;99.90;;;;;;5024188;28;20053;-65
2021/12/10 01:42:54;;;;;;;3.20;0.75;;;14.60;99.90;;;;;;5027277;28;20018;-65
2021/12/10 01:45:25;;;;;;;1.88;0.57;;;14.50;99.90;;;;;;5026042;28;20134;-65
2021/12/10 01:47:59;;;;;;;1.17;0.40;;;14.50;99.90;;;;;;5025316;28;20112;-66
2021/12/10 01:50:28;;;;;;;4.55;0.40;;;14.50;99.90;;;;;;5028431;28;20026;-66
2021/12/10 01:52:58;;;;;;;1.90;0.28;;;14.40;99.90;;;;;;5026939;28;20033;-66
2021/12/10 01:55:28;;;;;;;2.45;0.30;;;14.40;99.90;;;;;;5026328;28;20030;-64
2021/12/10 01:57:57;;;;;;;5.47;0.80;;;14.30;99.90;;;;;;5043983;28;20026;-65
2021/12/10 02:00:29;;;;;;;2.13;0.50;;;14.30;99.90;;;;;;5026594;28;20030;-66
2021/12/10 02:02:58;;;;;;;3.20;0.70;;;14.30;99.90;;;;;;5026367;28;20021;-66
2021/12/10 02:05:25;;;;;;;1.48;0.70;;;14.20;99.90;;;;;;5013443;28;20053;-65
2021/12/10 02:07:54;;;;;;;5.80;0.73;;;14.10;99.90;;;;;;5013312;28;20022;-66
2021/12/10 02:10:24;;;;;;;2.33;0.30;;;14.20;99.90;;;;;;5029220;28;20053;-65
2021/12/10 02:12:51;;;;;;;4.65;0.75;;;14.30;99.90;;;;;;5028146;28;20030;-65
2021/12/10 02:15:21;;;;;;;2.30;0.32;;;14.30;99.90;;;;;;5029577;28;20487;-65
2021/12/10 02:17:51;;;;;;;3.17;0.50;;;14.30;99.90;;;;;;5026490;28;20025;-66
2021/12/10 02:20:35;;;;;;;4.82;0.85;;;14.30;99.90;;;;;;5028812;28;20092;-65
2021/12/10 02:23:05;;;;;;;2.28;0.50;;;14.50;99.90;;;;;;5023396;28;20018;-66
2021/12/10 02:25:38;;;;;;;3.35;0.98;;;14.40;99.90;;;;;;5019982;28;20532;-64
2021/12/10 02:28:11;;;;;;;1.92;0.50;;;14.40;99.90;;;;;;5026501;28;20037;-65
2021/12/10 02:30:41;;;;;;;2.75;0.43;;;14.50;99.90;;;;;;5010517;28;20042;-65
2021/12/10 02:33:09;;;;;;;1.58;0.50;;;14.50;99.90;;;;;;5015412;28;20042;-65
2021/12/10 02:35:37;;;;;;;1.65;0.40;;;14.50;99.90;;;;;;5045710;28;20387;-66
2021/12/10 02:38:07;;;;;;;1.92;0.50;;;14.50;99.90;;;;;;5029465;28;20025;-65
2021/12/10 02:40:36;;;;;;;2.53;0.60;;;14.70;99.90;;;;;;5029986;28;20026;-65
2021/12/10 02:43:09;;;;;;;3.78;0.43;;;14.90;99.90;;;;;;5028082;28;20026;-66
2021/12/10 02:45:39;;;;;;;2.40;0.40;;;15.10;99.90;;;;;;5046775;28;20064;-65
2021/12/10 02:48:06;;;;;;;1.27;0.20;;;15.10;99.90;;;;;;5029080;28;20038;-65
2021/12/10 02:50:35;;;;;;;1.75;0.88;;;15.10;99.90;;;;;;5029645;28;20010;-65
2021/12/10 02:53:03;;;;;;;1.42;0.38;;;15.20;99.90;;;;;;5026880;28;20030;-65
2021/12/10 02:55:32;;;;;;;1.58;0.40;;;15.40;99.90;;;;;;5026701;28;20398;-66
2021/12/10 02:58:06;;;;;;;0.73;0.22;;;15.60;99.90;;;;;;5027945;28;20033;-66
2021/12/10 03:00:39;;;;;;;1.73;0.30;;;15.40;99.90;;;;;;5027755;28;20033;-65
2021/12/10 03:03:06;;;;;;;0.32;0.20;;;15.40;99.90;;;;;;5041021;28;20051;-65
2021/12/10 03:05:34;;;;;;;4.03;0.50;;;15.40;99.90;;;;;;5023481;28;20156;-66
2021/12/10 03:08:01;;;;;;;1.52;0.40;;;15.50;99.90;;;;;;5022108;28;20034;-65
2021/12/10 03:10:32;;;;;;;2.40;0.40;;;15.40;99.90;;;;;;5023922;28;20046;-65
2021/12/10 03:13:00;;;;;;;2.80;0.73;;;15.30;99.90;;;;;;5024623;28;20029;-67
2021/12/10 03:15:30;;;;;;;0.70;0.40;;;15.10;99.90;;;;;;5029335;28;20022;-66
2021/12/10 03:17:59;;;;;;;5.25;0.57;;;15.00;99.90;;;;;;5024445;28;20439;-66
2021/12/10 03:20:29;;;;;;;2.45;0.60;;;15.00;99.90;;;;;;5022076;28;20018;-66
2021/12/10 03:22:59;;;;;;;3.30;0.73;;;15.10;99.90;;;;;;5024308;28;20017;-66
2021/12/10 03:25:26;;;;;;;3.22;0.52;;;15.00;99.90;;;;;;5026838;28;20033;-67
2021/12/10 03:27:54;;;;;;;3.00;0.70;;;14.90;99.90;;;;;;5025218;28;20029;-65
2021/12/10 03:30:26;;;;;;;6.75;1.30;;;14.90;99.90;;;;;;5025334;28;20060;-65
2021/12/10 03:32:55;;;;;;;5.50;1.27;;;14.90;99.90;;;;;;5026637;28;20026;-65
2021/12/10 03:35:29;;;;;;;5.18;0.70;;;15.00;99.90;;;;;;5025811;28;20072;-65
2021/12/10 03:38:02;;;;;;;;;;;15.00;99.90;;;;;;5023679;28;20022;-65
2021/12/10 03:40:30;;;;;;;3.53;1.08;;;15.10;99.90;;;;;;5026111;28;19914;-65
2021/12/10 03:42:58;;;;;;;2.20;0.75;;;15.10;99.90;;;;;;5024674;28;20030;-65
2021/12/10 03:45:29;;;;;;;2.53;0.95;;;15.10;99.90;;;;;;5026935;28;20036;-65
2021/12/10 03:47:58;;;;;;;3.90;0.50;;;15.10;99.90;;;;;;5025721;28;20475;-65
2021/12/10 03:50:32;;;;;;;1.48;0.50;;;15.10;99.90;;;;;;5028228;28;20030;-65
2021/12/10 03:53:00;;;;;;;1.87;0.20;;;15.20;99.90;;;;;;5024819;28;20036;-65
2021/12/10 03:55:28;;;;;;;4.65;0.90;;;15.20;99.90;;;;;;5028060;28;20029;-65
2021/12/10 03:57:57;;;;;;;6.78;1.63;;;15.20;99.90;;;;;;5029069;28;20029;-65
2021/12/10 04:00:28;;;;;;;1.23;0.38;;;15.30;99.90;;;;;;5028350;28;20025;-65
2021/12/10 04:02:56;;;;;;;2.10;0.40;;;15.30;99.90;;;;;;5034501;28;20378;-66
2021/12/10 04:05:24;;;;;;;2.03;0.28;;;15.30;99.90;;;;;;5025785;28;20045;-65
2021/12/10 04:07:51;;;;;;;1.63;0.52;;;15.30;99.90;;;;;;5025228;28;20034;-65
2021/12/10 04:10:20;;;;;;;0.70;0.65;;;15.40;99.90;;;;;;5026606;28;20053;-65
2021/12/10 04:12:47;;;;;;;2.28;0.30;;;15.40;99.90;;;;;;5021463;28;20445;-66
2021/12/10 04:15:19;;;;;;;1.85;0.30;;;15.50;99.90;;;;;;5009584;28;20022;-65
2021/12/10 04:17:49;;;;;;;3.45;0.88;;;15.50;99.90;;;;;;5009227;28;20109;-66
2021/12/10 04:20:18;;;;;;;2.05;0.22;;;15.60;99.90;;;;;;5025505;28;20054;-66
2021/12/10 04:22:46;;;;;;;0.85;0.20;;;15.70;99.90;;;;;;5024640;28;20022;-65
2021/12/10 04:25:18;;;;;;;1.08;0.55;;;16.20;99.90;;;;;;5029060;28;20033;-66
2021/12/10 04:27:48;;;;;;;3.58;0.38;;;16.60;99.90;;;;;;5023208;28;20041;-65
2021/12/10 04:30:16;;;;;;;1.42;0.30;;;16.50;99.90;;;;;;5040817;28;20463;-65
2021/12/10 04:32:45;;;;;;;0.60;0.15;;;16.60;99.90;;;;;;5024437;28;20038;-66
2021/12/10 04:35:13;;;;;;;1.35;0.20;;;16.50;99.90;;;;;;5020261;28;20022;-65
2021/12/10 04:37:41;;;;;;;1.55;0.35;;;16.60;99.90;;;;;;5022100;28;20030;-65
2021/12/10 04:40:11;;;;;;;0.65;0.10;;;16.50;99.90;;;;;;5020966;28;20117;-67
2021/12/10 04:42:39;;;;;;;0.30;0.10;;;16.40;99.90;;;;;;5022158;28;20493;-66
2021/12/10 04:45:07;;;;;;;0.35;0.00;;;16.40;99.90;;;;;;5022953;28;20034;-65
2021/12/10 04:47:35;;;;;;;0.35;0.10;;;16.30;99.90;;;;;;5020965;28;20029;-65
2021/12/10 04:50:04;;;;;;;0.25;0.10;;;16.40;99.90;;;;;;5021135;28;20045;-65
2021/12/10 04:52:34;;;;;;;0.30;0.10;;;16.30;99.90;;;;;;5019004;28;20088;-66
2021/12/10 04:55:03;;;;;;;0.82;0.30;;;16.20;99.90;;;;;;5026528;28;20064;-66
2021/12/10 04:57:31;;;;;;;0.45;0.00;;;16.20;99.90;;;;;;5018443;28;20022;-66
2021/12/10 04:59:59;;;;;;;0.20;0.10;;;16.20;99.90;;;;;;5017124;28;20030;-66
2021/12/10 05:02:27;;;;;;;0.20;0.10;;;16.20;99.90;;;;;;5017612;28;20026;-67
2021/12/10 05:04:57;;;;;;;0.47;0.10;;;16.20;99.90;;;;;;5017104;28;20033;-66
2021/12/10 05:07:29;;;;;;;2.03;0.05;;;16.20;99.90;;;;;;5015648;28;20036;-66
2021/12/10 05:09:58;;;;;;;0.00;0.00;;;16.30;99.90;;;;;;4999077;28;20472;-66
2021/12/10 05:12:25;;;;;;;1.45;0.20;;;16.30;99.90;;;;;;5012584;28;20053;-66
2021/12/10 05:14:59;;;;;;;1.30;0.15;;;16.40;99.90;;;;;;5016064;28;20026;-66
2021/12/10 05:17:30;;;;;;;2.13;0.10;;;16.50;99.90;;;;;;5015687;28;20029;-66
2021/12/10 05:20:00;;;;;;;0.10;0.08;;;16.60;99.90;;;;;;5028551;28;20038;-66
2021/12/10 05:22:27;;;;;;;0.20;0.10;;;16.70;99.90;;;;;;4996176;28;20494;-66
2021/12/10 05:24:55;;;;;;;0.63;0.10;;;16.70;99.90;;;;;;5015500;28;20044;-67
2021/12/10 05:27:22;;;;;;;2.10;0.10;;;16.80;99.90;;;;;;5013181;28;20014;-65
2021/12/10 05:29:50;;;;;;;0.35;0.10;;;16.90;99.90;;;;;;5014197;28;20030;-66
2021/12/10 05:32:17;;;;;;;0.68;0.10;;;17.10;99.90;;;;;;5014687;28;20048;-66
2021/12/10 05:34:46;;;;;;;0.75;0.10;;;17.10;99.90;;;;;;5011769;28;20115;-65
2021/12/10 05:37:14;;;;;;;0.52;0.30;;;17.20;99.90;;;;;;5013122;28;20030;-66
2021/12/10 05:39:41;;;;;;;0.85;0.40;;;17.30;99.90;;;;;;5012426;28;20036;-67
2021/12/10 05:42:09;;;;;;;2.05;0.10;;;17.40;99.90;;;;;;5013427;28;20374;-66
2021/12/10 05:44:38;;;;;;;0.55;0.10;;;17.60;99.90;;;;;;5013614;28;20036;-67
2021/12/10 05:47:07;;;;;;;0.40;0.10;;;17.90;99.90;;;;;;5013541;28;20025;-67
2021/12/10 05:49:34;;;;;;;0.20;0.10;;;18.00;99.90;;;;;;5028751;28;20064;-67
2021/12/10 05:52:04;;;;;;;0.20;0.00;;;17.90;99.90;;;;;;5014217;28;20041;-67
2021/12/10 05:54:31;;;;;;;0.82;0.28;;;18.00;99.90;;;;;;5014053;28;20026;-67
2021/12/10 05:56:58;;;;;;;0.20;0.10;;;18.00;99.90;;;;;;5016133;28;20064;-67
2021/12/10 05:59:27;;;;;;;0.70;0.05;;;18.10;99.90;;;;;;5014424;28;20053;-67
2021/12/10 06:01:54;;;;;;;0.03;0.00;;;18.20;99.90;;;;;;5010692;28;20030;-67
2021/12/10 06:04:26;;;;;;;0.00;0.00;;;18.00;99.90;;;;;;5001578;28;20033;-67
2021/12/10 06:06:55;;;;;;;0.00;0.00;;;17.80;99.90;;;;;;5036776;28;20030;-67
2021/12/10 06:09:24;;;;;;;0.63;0.00;;;17.70;99.90;;;;;;5001527;28;20117;-68
2021/12/10 06:11:51;;;;;;;0.10;0.00;;;17.60;99.90;;;;;;4995730;28;20056;-67
2021/12/10 06:14:19;;;;;;;0.20;0.10;;;17.60;99.90;;;;;;5011893;28;20573;-68
2021/12/10 06:16:47;;;;;;;0.10;0.00;;;17.50;99.90;;;;;;5016190;28;20022;-66
2021/12/10 06:19:15;;;;;;;0.32;0.00;;;17.60;99.90;;;;;;5016981;28;20075;-66
2021/12/10 06:21:42;;;;;;;0.00;0.00;;;17.50;99.90;;;;;;5016684;28;20478;-67
2021/12/10 06:24:09;;;;;;;0.65;0.20;;;17.50;99.90;;;;;;5015024;28;20034;-66
2021/12/10 06:26:37;;;;;;;1.08;0.00;;;17.40;99.90;;;;;;5015866;28;20022;-66
2021/12/10 06:29:05;;;;;;;0.10;0.10;;;17.50;99.90;;;;;;5015126;28;20474;-66
2021/12/10 06:31:33;;;;;;;0.00;0.00;;;17.50;99.90;;;;;;5015850;28;20049;-66
2021/12/10 06:34:01;;;;;;;0.10;0.00;;;17.50;99.90;;;;;;5013494;28;20447;-66
2021/12/10 06:36:30;;;;;;;0.10;0.00;;;17.50;99.90;;;;;;5015271;28;20022;-66
2021/12/10 06:39:00;;;;;;;0.10;0.00;;;17.50;99.90;;;;;;5013929;28;20022;-66
2021/12/10 06:41:27;;;;;;;0.00;0.00;;;17.40;99.90;;;;;;5015694;28;20049;-66
2021/12/10 06:43:54;;;;;;;0.55;0.10;;;17.40;99.90;;;;;;5014212;28;20096;-67
2021/12/10 06:46:22;;;;;;;0.73;0.10;;;17.40;99.90;;;;;;5017209;28;20449;-66
2021/12/10 06:48:49;;;;;;;0.10;0.00;;;17.50;99.90;;;;;;5019966;28;20030;-67
2021/12/10 06:51:20;;;;;;;0.43;0.00;;;17.40;99.90;;;;;;5020888;28;20022;-67
2021/12/10 06:53:49;;;;;;;0.20;0.00;;;17.50;99.90;;;;;;5019149;28;20090;-66
2021/12/10 06:56:18;;;;;;;0.30;0.10;;;17.40;99.90;;;;;;5032343;28;20109;-66
2021/12/10 06:58:46;;;;;;;0.22;0.00;;;17.50;99.90;;;;;;5020766;28;20025;-66
2021/12/10 07:01:30;;;;;;;0.00;0.00;;;17.50;99.90;;;;;;5040428;28;20026;-67
2021/12/10 07:03:59;;;;;;;0.25;0.00;;;17.50;99.90;;;;;;5024047;28;20567;-66
2021/12/10 07:06:28;;;;;;;0.20;0.10;;;17.40;99.90;;;;;;4999483;28;20077;-67
2021/12/10 07:08:57;;;;;;;0.00;0.00;;;17.40;99.90;;;;;;5012169;28;20034;-67
2021/12/10 07:11:26;;;;;;;0.30;0.10;;;17.20;99.90;;;;;;5019982;28;20041;-67
2021/12/10 07:13:56;;;;;;;1.35;0.05;;;17.10;99.90;;;;;;5019308;28;20045;-68
2021/12/10 07:16:26;;;;;;;0.10;0.10;;;17.00;99.90;;;;;;5020770;28;20100;-67
2021/12/10 07:18:54;;;;;;;0.68;0.17;;;16.90;99.90;;;;;;5019334;28;20026;-67
2021/12/10 07:21:22;;;;;;;0.22;0.22;;;16.60;99.90;;;;;;5019735;28;20022;-67
2021/12/10 07:23:50;;;;;;;0.35;0.15;;;16.40;99.90;;;;;;5017859;28;20045;-67
2021/12/10 07:26:17;;;;;;;0.30;0.00;;;16.20;99.90;;;;;;5019911;28;20038;-66
2021/12/10 07:28:44;;;;;;;0.52;0.05;;;16.00;99.90;;;;;;5017580;28;20030;-66
2021/12/10 07:31:13;;;;;;;0.20;0.10;;;15.80;99.90;;;;;;5019012;28;20022;-67
2021/12/10 07:33:41;;;;;;;1.23;0.40;;;15.60;99.90;;;;;;5029124;28;20488;-66
2021/12/10 07:36:09;;;;;;;0.28;0.20;;;15.60;99.90;;;;;;5008575;28;20026;-67
2021/12/10 07:38:37;;;;;;;0.73;0.20;;;15.60;99.90;;;;;;5017109;28;20030;-67
2021/12/10 07:41:06;;;;;;;0.75;0.10;;;15.60;99.90;;;;;;5017030;28;20030;-67
2021/12/10 07:43:35;;;;;;;0.17;0.08;;;15.60;99.90;;;;;;5016961;28;20114;-67
2021/12/10 07:46:04;;;;;;;1.13;0.55;;;15.60;99.90;;;;;;5017502;28;20022;-67
2021/12/10 07:48:34;;;;;;;0.88;0.25;;;15.60;99.90;;;;;;5016831;28;20032;-67
2021/12/10 07:51:09;;;;;;;2.17;0.70;;;15.60;99.90;;;;;;5013791;28;20062;-67
2021/12/10 07:53:37;;;;;;;1.23;0.60;;;15.70;99.90;;;;;;5005235;28;20529;-68
2021/12/10 07:56:08;;;;;;;1.40;0.28;;;15.70;99.90;;;;;;5017108;28;20049;-67
2021/12/10 07:58:37;;;;;;;2.95;0.70;;;15.80;99.90;;;;;;5014771;28;20044;-67
2021/12/10 08:01:09;;;;;;;1.02;0.40;;;15.80;99.90;;;;;;5016464;28;20055;-67
2021/12/10 08:03:37;;;;;;;1.40;0.30;;;15.90;99.90;;;;;;5015346;28;20021;-67
2021/12/10 08:06:05;;;;;;;1.80;0.40;;;15.80;99.90;;;;;;5015964;28;20475;-67
2021/12/10 08:08:33;;;;;;;0.43;0.20;;;15.90;99.90;;;;;;5015469;28;20026;-67
2021/12/10 08:11:00;;;;;;;0.68;0.30;;;15.90;99.90;;;;;;5017238;28;20128;-67
2021/12/10 08:13:29;;;;;;;0.95;0.20;;;15.90;99.90;;;;;;5016092;28;20026;-67
2021/12/10 08:15:56;;;;;;;0.20;0.03;;;16.00;99.90;;;;;;5016514;28;20036;-67
2021/12/10 08:18:24;;;;;;;1.02;0.20;;;16.00;99.90;;;;;;5014849;28;20104;-67
2021/12/10 08:20:51;;;;;;;0.73;0.22;;;16.00;99.90;;;;;;5016778;28;20025;-67
2021/12/10 08:23:19;;;;;;;1.30;0.40;;;16.10;99.90;;;;;;5015018;28;20026;-67
2021/12/10 08:25:47;;;;;;;0.73;0.30;;;16.10;99.90;;;;;;5015514;28;20037;-67
2021/12/10 08:28:15;;;;;;;0.70;0.30;;;16.10;99.90;;;;;;5015614;28;20116;-68
2021/12/10 08:30:42;;;;;;;0.65;0.13;;;16.10;99.90;;;;;;5015964;28;20554;-67
2021/12/10 08:33:14;;;;;;;0.75;0.30;;;16.10;99.90;;;;;;5014767;28;20068;-67
2021/12/10 08:35:48;;;;;;;0.80;0.22;;;16.10;99.90;;;;;;5016326;28;20102;-67
2021/12/10 08:38:15;;;;;;;3.28;1.00;;;16.20;99.90;;;;;;5014552;28;20045;-67
2021/12/10 08:40:49;;;;;;;2.85;1.20;;;16.20;99.90;;;;;;5014924;28;20041;-67
2021/12/10 08:43:17;;;;;;;0.70;0.22;;;16.20;99.90;;;;;;5015342;28;20525;-67
2021/12/10 08:45:45;;;;;;;1.63;0.80;;;16.20;99.90;;;;;;5009029;28;20454;-66
2021/12/10 08:48:13;;;;;;;2.13;0.43;;;16.20;99.90;;;;;;5000393;28;20112;-66
2021/12/10 08:50:44;;;;;;;0.68;0.30;;;16.30;99.90;;;;;;5013501;28;20022;-67
2021/12/10 08:53:13;;;;;;;1.60;0.50;;;16.30;99.90;;;;;;5013673;28;20030;-67
2021/12/10 08:55:48;;;;;;;0.47;0.30;;;16.40;99.90;;;;;;5014743;28;20026;-66
2021/12/10 08:58:17;;;;;;;0.50;0.20;;;16.40;99.90;;;;;;5013878;28;20092;-66
2021/12/10 09:00:48;;;;;;;0.68;0.20;;;16.40;99.90;;;;;;5014796;28;20022;-67
2021/12/10 09:03:16;;;;;;;0.40;0.10;;;16.40;99.90;;;;;;5012992;28;20018;-67
2021/12/10 09:05:44;;;;;;;0.60;0.10;;;16.40;99.90;;;;;;5014028;28;20029;-66
2021/12/10 09:08:12;;;;;;;0.68;0.13;;;16.40;99.90;;;;;;5014292;28;20431;-66
2021/12/10 09:10:42;;;;;;;1.65;0.20;;;16.40;99.90;;;;;;5015053;28;20487;-66
2021/12/10 09:13:14;;;;;;;0.30;0.20;;;16.40;99.90;;;;;;5012864;28;20642;-66
2021/12/10 09:15:53;;;;;;;0.15;0.10;;;16.40;99.90;;;;;;5030286;28;20037;-66
2021/12/10 09:18:20;;;;;;;0.90;0.15;;;16.40;99.90;;;;;;5013824;28;20025;-66
2021/12/10 09:20:50;;;;;;;0.10;0.00;;;16.40;99.90;;;;;;5015095;28;20037;-66
2021/12/10 09:23:23;;;;;;;0.17;0.10;;;16.40;99.90;;;;;;5013792;28;20118;-65
2021/12/10 09:25:53;;;;;;;1.08;0.10;;;16.30;99.90;;;;;;5014065;28;20029;-66
2021/12/10 09:28:21;;;;;;;0.17;0.10;;;16.30;99.90;;;;;;5014238;28;20034;-66
2021/12/10 09:30:52;;;;;;;1.55;0.00;;;16.40;99.90;;;;;;5016444;28;20105;-66
2021/12/10 09:33:19;;;;;;;0.20;0.10;;;16.30;99.90;;;;;;5013702;28;20030;-66
2021/12/10 09:35:48;;;;;;;0.22;0.10;;;16.30;99.90;;;;;;5014228;28;20038;-66
2021/12/10 09:38:19;;;;;;;1.00;0.20;;;16.30;99.90;;;;;;5013784;28;20113;-66
2021/12/10 09:40:49;;;;;;;0.95;0.10;;;16.20;99.90;;;;;;5012600;28;20104;-66
2021/12/10 09:43:17;;;;;;;0.52;0.10;;;16.20;99.90;;;;;;5014024;28;20434;-66
2021/12/10 09:45:45;;;;;;;0.20;0.05;;;16.20;99.90;;;;;;5013646;28;20026;-66
2021/12/10 09:48:16;;;;;;;0.05;0.00;;;16.30;99.90;;;;;;5013516;28;20026;-66
2021/12/10 09:51:03;;;;;;;0.47;0.00;;;16.20;99.90;;;;;;5014565;28;20034;-65
2021/12/10 09:53:32;;;;;;;1.92;0.00;;;16.20;99.90;;;;;;5009371;28;20046;-66
2021/12/10 09:56:00;;;;;;;0.90;0.32;;;16.20;99.90;;;;;;4995035;28;20054;-66
2021/12/10 09:58:29;;;;;;;0.68;0.40;;;16.20;99.90;;;;;;5003266;28;20026;-66
2021/12/10 10:01:05;;;;;;;0.95;0.10;;;16.20;99.90;;;;;;5014735;28;20026;-67
2021/12/10 10:03:37;;;;;;;0.38;0.13;;;16.20;99.90;;;;;;5013626;28;20113;-66
2021/12/10 10:06:06;;;;;;;0.03;0.00;;;16.20;99.90;;;;;;5008358;28;20053;-66
2021/12/10 10:08:34;;;;;;;0.10;0.10;;;16.20;99.90;;;;;;5013643;28;20044;-66
2021/12/10 10:11:14;;;;;;;0.10;0.00;;;16.20;99.90;;;;;;5013525;28;20406;-66
2021/12/10 10:13:44;;;;;;;1.45;0.20;;;16.20;99.90;;;;;;5013793;28;20066;-66
2021/12/10 10:16:12;;;;;;;0.20;0.10;;;16.20;99.90;;;;;;5013162;28;20389;-67
2021/12/10 10:18:42;;;;;;;4.28;0.30;;;16.20;99.90;;;;;;5013053;28;20116;-66
2021/12/10 10:21:14;;;;;;;0.98;0.13;;;16.20;99.90;;;;;;5016576;28;20498;-67
2021/12/10 10:23:43;;;;;;;0.30;0.00;;;16.10;99.90;;;;;;5017061;28;20029;-66
2021/12/10 10:26:15;;;;;;;0.25;0.10;;;16.20;99.90;;;;;;5018261;28;20044;-66
2021/12/10 10:28:43;;;;;;;0.20;0.00;;;16.20;99.90;;;;;;5032777;28;20371;-67
2021/12/10 10:31:19;;;;;;;0.10;0.00;;;16.10;99.90;;;;;;5018614;28;20029;-66
2021/12/10 10:33:51;;;;;;;0.00;0.00;;;16.10;99.90;;;;;;5017083;28;20079;-67
2021/12/10 10:36:23;;;;;;;0.30;0.00;;;16.10;99.90;;;;;;4998446;28;20105;-66
2021/12/10 10:38:55;;;;;;;0.70;0.00;;;16.10;99.90;;;;;;5009126;28;20026;-67
2021/12/10 10:41:27;;;;;;;0.00;0.00;;;16.10;99.90;;;;;;5016910;28;20366;-66
2021/12/10 10:43:56;;;;;;;0.10;0.00;;;16.00;99.90;;;;;;5016020;28;20088;-66
2021/12/10 10:46:24;;;;;;;0.13;0.00;;;16.00;99.90;;;;;;5017642;28;20493;-66
2021/12/10 10:48:51;;;;;;;0.30;0.10;;;16.00;99.90;;;;;;5017128;28;20324;-67
2021/12/10 10:51:35;;;;;;;0.10;0.00;;;16.00;99.90;;;;;;5017985;28;20034;-67
2021/12/10 10:54:08;;;;;;;0.35;0.00;;;16.00;99.90;;;;;;5017240;28;20033;-66
2021/12/10 10:56:45;;;;;;;0.40;0.00;;;16.00;99.90;;;;;;5017706;28;20030;-67
2021/12/10 10:59:24;;;;;;;1.33;0.52;;;16.00;99.90;;;;;;5016285;28;20044;-66
2021/12/10 11:02:02;;;;;;;0.20;0.03;;;15.90;99.90;;;;;;5016335;28;20092;-67
2021/12/10 11:04:35;;;;;;;0.57;0.00;;;16.00;99.90;;;;;;5015365;28;20034;-66
2021/12/10 11:07:27;;;;;;;0.17;0.00;;;16.00;99.90;;;;;;5027772;28;20088;-67
2021/12/10 11:10:05;;;;;;;1.00;0.00;;;16.00;99.90;;;;;;5017134;28;20030;-66
2021/12/10 11:12:35;;;;;;;0.22;0.08;;;16.00;99.90;;;;;;5016791;28;20137;-66
2021/12/10 11:15:14;;;;;;;0.00;0.00;;;16.00;99.90;;;;;;5018089;28;20026;-66
2021/12/10 11:17:49;;;;;;;0.20;0.00;;;16.00;99.90;;;;;;5016368;28;20028;-66
2021/12/10 11:20:28;;;;;;;0.85;0.00;;;15.90;99.90;;;;;;5018114;28;20036;-66
2021/12/10 11:23:02;;;;;;;0.00;0.00;;;15.90;99.90;;;;;;5018278;28;20026;-66
2021/12/10 11:25:40;;;;;;;0.20;0.00;;;15.90;99.90;;;;;;5018492;28;20022;-66
2021/12/10 11:28:15;;;;;;;0.30;0.05;;;15.90;99.90;;;;;;5015949;28;20411;-66
2021/12/10 11:30:50;;;;;;;0.20;0.00;;;15.80;99.90;;;;;;5015999;28;20018;-66
2021/12/10 11:33:27;;;;;;;0.10;0.00;;;15.90;99.90;;;;;;5016561;28;20026;-66
2021/12/10 11:36:02;;;;;;;0.00;0.00;;;15.90;99.90;;;;;;5036842;28;20036;-66
2021/12/10 11:38:32;;;;;;;0.20;0.00;;;15.80;99.90;;;;;;5027802;28;20018;-66
2021/12/10 11:41:08;;;;;;;0.00;0.00;;;15.90;99.90;;;;;;5033252;28;20030;-66
2021/12/10 11:44:07;;;;;;;1.38;0.00;;;15.80;99.90;;;;;;5030785;28;20041;-67
2021/12/10 11:49:38;;;;;;;1.13;0.05;;;15.80;99.90;;;;;;5014760;28;20052;-67
2021/12/10 11:52:16;;;;;;;0.00;0.00;;;15.80;99.90;;;;;;5017438;28;20037;-66
2021/12/10 11:55:12;;;;;;;0.52;0.25;;;15.80;99.90;;;;;;5017707;28;20035;-66
2021/12/10 11:57:42;;;;;;;0.40;0.10;;;15.70;99.90;;;;;;5004385;28;20034;-66
2021/12/10 12:00:37;;;;;;;2.20;0.00;;;15.60;99.90;;;;;;5017298;28;20375;-66
2021/12/10 12:03:08;;;;;;;0.77;0.17;;;15.70;99.90;;;;;;5011787;28;20161;-66
2021/12/10 12:05:40;;;;;;;1.10;0.00;;;15.70;99.90;;;;;;5011696;28;20528;-66
2021/12/10 12:08:10;;;;;;;0.00;0.00;;;15.60;99.90;;;;;;5017053;28;20025;-66
2021/12/10 12:10:44;;;;;;;0.30;0.00;;;15.70;99.90;;;;;;5017033;28;20050;-67
2021/12/10 12:15:47;;;;;;;0.17;0.00;;;15.70;99.90;;;;;;5016844;28;20030;-66
2021/12/10 12:18:29;;;;;;;1.05;0.20;;;15.70;99.90;;;;;;5014430;28;20034;-66
2021/12/10 12:27:12;;;;;;;0.10;0.00;;;15.70;99.90;;;;;;4997074;28;20030;-66
2021/12/10 12:29:44;;;;;;;1.08;0.10;;;15.70;99.90;;;;;;5016223;28;20412;-66
2021/12/10 12:32:38;;;;;;;1.70;0.25;;;15.70;99.90;;;;;;5016267;28;20025;-66
2021/12/10 12:35:23;;;;;;;0.20;0.03;;;15.70;99.90;;;;;;5031618;28;20033;-66
2021/12/10 12:37:51;;;;;;;0.10;0.00;;;15.70;99.90;;;;;;5032166;28;20183;-66
2021/12/10 12:40:18;;;;;;;0.13;0.00;;;15.80;99.90;;;;;;5018618;28;20064;-66
2021/12/10 12:42:48;;;;;;;0.20;0.00;;;15.80;99.90;;;;;;5016290;28;20368;-66
2021/12/10 12:45:24;;;;;;;0.10;0.00;;;15.80;99.90;;;;;;5016357;28;20032;-66
2021/12/10 12:47:55;;;;;;;0.25;0.00;;;15.80;99.90;;;;;;5016412;28;20053;-66
2021/12/10 12:50:31;;;;;;;0.20;0.00;;;15.80;99.90;;;;;;5017047;28;20053;-66
2021/12/10 12:53:09;;;;;;;0.03;0.00;;;15.80;99.90;;;;;;5016862;28;20030;-66
2021/12/10 12:55:45;;;;;;;0.25;0.03;;;15.70;99.90;;;;;;5016412;28;20030;-66
2021/12/10 12:58:24;;;;;;;0.45;0.10;;;15.70;99.90;;;;;;5016221;28;20093;-66
2021/12/10 13:01:10;;;;;;;0.38;0.00;;;15.70;99.90;;;;;;5016370;28;20033;-66
2021/12/10 13:03:49;;;;;;;0.43;0.22;;;15.70;99.90;;;;;;5016934;28;20049;-66
2021/12/10 13:06:28;;;;;;;0.50;0.00;;;15.70;99.90;;;;;;4998517;28;20176;-66
2021/12/10 13:09:08;;;;;;;0.57;0.00;;;15.70;99.90;;;;;;5009593;28;20449;-66
2021/12/10 13:12:03;;;;;;;0.30;0.00;;;15.70;99.90;;;;;;5018587;28;20052;-66
2021/12/10 13:14:45;;;;;;;0.35;0.00;;;15.80;99.90;;;;;;5017335;28;20061;-66
2021/12/10 13:17:16;;;;;;;1.48;0.00;;;15.80;99.90;;;;;;5016227;28;20052;-66
2021/12/10 13:19:44;;;;;;;0.00;0.00;;;15.70;99.90;;;;;;5017603;28;20534;-66
2021/12/10 13:22:18;;;;;;;0.10;0.03;;;15.70;99.90;;;;;;5018763;28;20038;-66
2021/12/10 13:24:49;;;;;;;0.38;0.10;;;15.70;99.90;;;;;;5017039;28;20030;-66
2021/12/10 13:27:18;;;;;;;0.47;0.00;;;15.70;99.90;;;;;;5015418;28;20029;-66
2021/12/10 13:29:46;;;;;;;1.98;0.20;;;15.80;99.90;;;;;;5014185;28;20030;-66